Hovedside
METAR-TAF:

METAR-TAF

Lufthavner :

Røros lufthavn

Røros, Norge

breddegrad: 62-35N, lengdegrad: 011-21E, høyde over havet: 626 m

Gjeldene værobservasjon

Denne rapporten ble laget for 26 minutter siden, klokken 06:20 UTC
Vind 3 kt fra Sør, skiftende mellom Sør-sørøst og Sør-sørvest
Temperatur -9°C
Luftfuktighet 100%
Trykk 1019 hPa
Sikt: 8000 m
Brutte skyer i en høyde av 300 ft

METAR: ENRO 150620Z 18003KT 150V210 8000 BKN003 M09/M09 Q1019

Tid: 07:46 (06:46 UTC)

Varsel

Denne rapporten ble laget for 1 time og 46 minutter siden, klokken 05:00 UTC
Varsel gyldig fra 15. klokken 06 UTC til 15. klokken 15 UTC
Vind 3 kt fra skiftende retning
Sikt: 8000 m
Overskyet i en høyde av 500 ft
Sannsynlighet 30%
fra 15. klokken 06 UTC til 15. klokken 10 UTC
Sikt: 0300 m
i en høyde av 100 ft
underkjølt tåke
Midlertidig
fra 15. klokken 11 UTC til 15. klokken 14 UTC
Få skyer i en høyde av 1200 ft

TAF: ENRO 150500Z 1506/1515 VRB03KT 8000 OVC005 PROB30 1506/1510 0300 FZFG VV001 TEMPO 1511/1514 FEW012

Værobservasjoner og værvarsel for over 4000 flyplasser (METAR- og TAF-rapporter).

Tilgjengelige stasjoner er representert av de røde og gule prikkene på kartet.

Hold musepekeren over prikken for å se navnet på stasjonen.

Klikk så for å se værobservasjoner og -varsler.

For å forandre kartet kan du klikke på den grønne knappen med svart kryss for å zoome inn, på den grønne knappen med strek for å zoome ut, eller på de grønne pilene for å se tilstøtende kart.


METAR-TAF: